MDT,Max TemperatureF,Mean TemperatureF,Min TemperatureF,Max Dew PointF,MeanDew PointF,Min DewpointF,Max Humidity, Mean Humidity, Min Humidity, Max Sea Level PressureIn, Mean Sea Level PressureIn, Min Sea Level PressureIn, Max VisibilityMiles, Mean VisibilityMiles, Min VisibilityMiles, Max Wind SpeedMPH, Mean Wind SpeedMPH, Max Gust SpeedMPH,PrecipitationIn, CloudCover, Events, WindDirDegrees
2011-10-1,80,59,37,36,28,18,48,31,13,30.15,30.05,29.99,10,10,10,21,6,28,0.00,1,,214
2011-10-2,78,60,41,35,32,29,62,39,16,30.09,30.02,29.95,10,10,10,28,7,33,0.00,1,,256
2011-10-3,75,57,39,48,37,31,77,51,25,30.22,30.06,29.91,10,9,2,29,4,40,0.06,4,Rain-Thunderstorm,162
2011-10-4,73,60,46,45,40,33,86,56,25,29.99,29.84,29.75,10,10,5,29,11,36,0.18,3,Rain,203
2011-10-5,62,54,45,40,35,29,80,55,29,29.72,29.61,29.48,10,10,10,33,16,41,0.00,4,,195
2011-10-6,56,45,33,39,33,24,85,64,43,29.68,29.52,29.32,10,9,2,37,17,48,0.07,7,Rain-Snow,217
2011-10-7,42,37,31,30,26,21,89,70,51,30.03,29.91,29.70,10,8,1,37,21,46,0.01,6,Snow,232
2011-10-8,38,35,32,36,31,28,92,87,82,30.29,30.15,29.96,10,6,2,20,8,25,0.12,8,Rain-Snow,351
2011-10-9,44,36,27,31,30,27,92,75,57,30.28,30.18,29.97,10,10,10,16,6,22,0.00,7,,284
2011-10-10,56,46,36,34,29,25,76,53,30,29.99,29.91,29.82,10,10,10,30,18,38,0.02,5,Rain,244
2011-10-11,53,46,39,39,36,31,92,68,44,29.96,29.86,29.80,10,10,9,33,20,40,0.06,6,Rain,251
2011-10-12,56,45,33,29,23,15,79,51,22,30.12,30.07,29.99,10,10,10,29,16,37,0.00,0,,250
2011-10-13,63,51,38,28,23,17,48,35,21,30.08,29.98,29.90,10,10,10,35,18,41,0.00,0,,251
2011-10-14,66,56,46,30,25,20,50,36,22,29.97,29.92,29.89,10,10,10,29,17,37,0.00,1,,252
2011-10-15,74,58,41,31,27,21,55,35,14,29.97,29.90,29.82,10,10,10,36,16,44,0.00,0,,245
2011-10-16,70,56,41,32,28,22,60,39,17,29.99,29.87,29.78,10,10,10,28,12,37,T,3,,259
2011-10-17,54,43,32,36,31,23,92,67,42,30.32,30.15,29.77,10,10,6,32,12,40,0.06,6,Rain,313
2011-10-18,52,38,23,28,22,15,84,55,26,30.45,30.36,30.29,10,10,10,13,3,20,0.00,1,,309
2011-10-19,62,41,20,23,17,12,84,50,15,30.30,30.10,29.87,10,10,10,18,6,23,0.00,0,,222
2011-10-20,62,50,38,25,21,16,48,34,20,30.06,29.99,29.86,10,10,10,23,14,30,0.00,0,,249
2011-10-21,63,49,35,30,25,23,54,40,25,30.17,30.10,30.04,10,10,10,23,9,30,0.00,2,,267
2011-10-22,61,49,37,29,26,21,64,43,22,30.17,30.10,30.05,10,10,10,25,16,37,0.00,0,,253
2011-10-23,63,51,38,29,25,20,64,42,20,30.18,30.10,30.03,10,10,10,33,18,44,0.00,0,,243
2011-10-24,67,52,36,24,20,16,48,32,16,30.02,29.89,29.77,10,10,10,35,14,44,0.00,1,,230
2011-10-25,47,38,28,34,30,22,96,67,37,30.16,30.05,29.80,10,7,1,20,9,26,0.11,7,Rain-Snow,16
2011-10-26,33,24,14,27,21,13,92,73,54,30.27,30.22,30.15,10,8,1,18,9,24,0.01,6,Snow,65
2011-10-27,43,28,12,17,15,11,80,55,30,30.27,30.19,30.09,10,10,10,23,13,31,0.00,1,,238
2011-10-28,47,36,24,15,12,9,60,42,23,30.35,30.24,30.10,10,10,10,31,14,38,0.00,0,,241
2011-10-29,52,44,35,21,15,10,52,37,21,30.13,30.02,29.88,10,10,10,45,23,56,0.00,1,,250
2011-10-30,57,45,33,25,23,22,69,48,26,30.21,30.14,30.09,10,10,10,26,16,33,0.00,0,,246
2011-10-31,59,48,37,30,25,21,62,45,28,30.09,29.97,29.88,10,10,10,32,16,40,0.00,1,,245